createdAt,value
2019-05-26T00:02:48.391Z,98136.00
2019-05-26T00:08:13.868Z,98134.00
2019-05-26T00:13:39.132Z,98127.00
2019-05-26T00:19:04.267Z,98116.00
2019-05-26T00:24:29.806Z,98100.00
2019-05-26T00:29:54.951Z,98099.00
2019-05-26T00:35:20.221Z,98085.00
2019-05-26T00:40:47.158Z,98074.00
2019-05-26T00:46:12.573Z,98091.00
2019-05-26T00:51:37.764Z,98088.00
2019-05-26T00:57:03.354Z,98077.00
2019-05-26T01:02:28.960Z,98071.00
2019-05-26T01:08:05.659Z,98081.00
2019-05-26T01:13:22.362Z,98090.00
2019-05-26T01:18:44.754Z,98082.00
2019-05-26T01:24:06.960Z,98098.00
2019-05-26T01:29:15.126Z,98090.00
2019-05-26T01:34:23.250Z,98101.00
2019-05-26T01:39:38.446Z,98081.00
2019-05-26T01:45:08.728Z,98080.00
2019-05-26T01:50:35.054Z,98088.00
2019-05-26T01:55:47.978Z,98080.00
2019-05-26T02:01:00.894Z,98070.00
2019-05-26T02:06:11.711Z,98065.00
2019-05-26T02:11:30.063Z,98066.00
2019-05-26T02:16:37.408Z,98061.00
2019-05-26T02:21:46.240Z,98056.00
2019-05-26T02:27:00.146Z,98057.00
2019-05-26T02:32:25.623Z,98061.00
2019-05-26T02:37:51.092Z,98067.00
2019-05-26T02:43:16.393Z,98059.00
2019-05-26T02:48:41.912Z,98052.00
2019-05-26T02:54:07.968Z,98048.00
2019-05-26T02:59:33.219Z,98047.00
2019-05-26T03:05:01.637Z,98035.00
2019-05-26T03:10:27.813Z,98034.00
2019-05-26T03:15:45.904Z,98035.00
2019-05-26T03:21:14.424Z,98042.00
2019-05-26T03:26:39.796Z,98045.00
2019-05-26T03:32:05.659Z,98045.00
2019-05-26T03:37:27.762Z,98049.00
2019-05-26T03:42:36.526Z,98054.00
2019-05-26T03:47:47.718Z,98059.00
2019-05-26T03:53:14.021Z,98048.00
2019-05-26T03:58:39.346Z,98047.00
2019-05-26T04:04:05.738Z,98039.00
2019-05-26T04:09:13.932Z,98025.00
2019-05-26T04:14:23.962Z,98024.00
2019-05-26T04:19:49.792Z,98027.00
2019-05-26T04:25:08.701Z,98025.00
2019-05-26T04:30:18.606Z,98035.00
2019-05-26T04:35:26.284Z,98036.00
2019-05-26T04:40:38.680Z,98032.00
2019-05-26T04:45:47.433Z,98039.00
2019-05-26T04:50:54.610Z,98029.00
2019-05-26T04:56:02.971Z,98031.00
2019-05-26T05:01:11.267Z,98033.00
2019-05-26T05:06:36.820Z,98027.00
2019-05-26T05:12:03.135Z,98027.00
2019-05-26T05:17:29.231Z,98025.00
2019-05-26T05:22:54.795Z,98026.00
2019-05-26T05:28:20.005Z,98031.00
2019-05-26T05:33:46.845Z,98025.00
2019-05-26T05:38:55.426Z,98021.00
2019-05-26T05:44:11.126Z,98013.00
2019-05-26T05:49:19.877Z,98024.00
2019-05-26T05:54:30.765Z,98014.00
2019-05-26T05:59:51.397Z,98017.00
2019-05-26T06:05:00.402Z,98016.00
2019-05-26T06:10:11.868Z,98034.00
2019-05-26T06:15:21.715Z,98030.00
2019-05-26T06:20:32.370Z,98035.00
2019-05-26T06:25:42.953Z,98023.00
2019-05-26T06:30:52.223Z,98030.00
2019-05-26T06:36:00.728Z,98030.00
2019-05-26T06:41:12.229Z,98028.00
2019-05-26T06:46:21.974Z,98033.00
2019-05-26T06:51:44.432Z,98035.00
2019-05-26T06:56:51.750Z,98025.00
2019-05-26T07:02:00.237Z,98028.00
2019-05-26T07:07:11.031Z,98033.00
2019-05-26T07:12:35.468Z,98030.00
2019-05-26T07:18:00.915Z,98031.00
2019-05-26T07:23:27.045Z,98035.00
2019-05-26T07:28:52.760Z,98028.00
2019-05-26T07:34:02.817Z,98028.00
2019-05-26T07:39:13.468Z,98012.00
2019-05-26T07:44:22.302Z,98012.00
2019-05-26T07:49:31.702Z,98012.00
2019-05-26T07:54:51.816Z,98008.00
2019-05-26T08:00:00.254Z,98015.00
2019-05-26T08:05:14.427Z,98012.00
2019-05-26T08:10:26.204Z,98008.00
2019-05-26T08:15:51.372Z,98007.00
2019-05-26T08:21:03.070Z,97995.00
2019-05-26T08:26:15.710Z,97993.00
2019-05-26T08:31:26.454Z,97993.00
2019-05-26T08:36:42.292Z,97985.00
2019-05-26T08:41:51.474Z,97984.00
2019-05-26T08:46:59.425Z,97986.00
2019-05-26T08:52:09.885Z,97980.00
2019-05-26T08:57:18.119Z,97974.00
2019-05-26T09:02:33.894Z,97972.00
2019-05-26T09:07:42.932Z,97979.00
2019-05-26T09:13:00.930Z,97969.00
2019-05-26T09:18:20.390Z,97961.00
2019-05-26T09:23:45.914Z,97958.00
2019-05-26T09:29:12.473Z,97958.00
2019-05-26T09:34:22.447Z,97971.00
2019-05-26T09:39:47.585Z,97968.00
2019-05-26T09:44:57.491Z,97957.00
2019-05-26T09:50:09.895Z,97961.00
2019-05-26T09:55:35.974Z,97952.00
2019-05-26T10:01:02.305Z,97955.00
2019-05-26T10:06:11.047Z,97954.00
2019-05-26T10:11:18.179Z,97967.00
2019-05-26T10:16:30.736Z,97963.00
2019-05-26T10:21:41.388Z,97945.00
2019-05-26T10:26:53.554Z,97953.00
2019-05-26T10:32:01.795Z,97939.00
2019-05-26T10:37:11.955Z,97938.00
2019-05-26T10:42:21.682Z,97937.00
2019-05-26T10:47:47.363Z,97926.00
2019-05-26T10:52:56.244Z,97932.00
2019-05-26T10:58:05.891Z,97910.00
2019-05-26T11:03:15.742Z,97916.00
2019-05-26T11:08:26.212Z,97914.00
2019-05-26T11:14:02.275Z,97912.00
2019-05-26T11:19:01.776Z,97885.00
2019-05-26T11:24:14.677Z,97882.00
2019-05-26T11:29:24.459Z,97872.00
2019-05-26T11:34:36.651Z,97870.00
2019-05-26T11:40:23.519Z,97864.00
2019-05-26T11:45:48.882Z,97856.00
2019-05-26T11:51:01.992Z,97842.00
2019-05-26T11:56:12.465Z,97834.00
2019-05-26T12:01:23.521Z,97833.00
2019-05-26T12:06:33.387Z,97836.00
2019-05-26T12:11:43.577Z,97831.00
2019-05-26T12:16:51.705Z,97815.00
2019-05-26T12:21:59.946Z,97808.00
2019-05-26T12:27:09.349Z,97823.00
2019-05-26T12:32:36.049Z,97813.00
2019-05-26T12:38:01.637Z,97799.00
2019-05-26T12:43:10.933Z,97799.00
2019-05-26T12:48:26.340Z,97812.00
2019-05-26T12:53:51.508Z,97802.00
2019-05-26T12:58:58.797Z,97800.00
2019-05-26T13:04:08.316Z,97808.00
2019-05-26T13:09:19.347Z,97803.00
2019-05-26T13:14:31.761Z,97784.00
2019-05-26T13:19:40.835Z,97788.00
2019-05-26T13:25:08.631Z,97781.00
2019-05-26T13:30:23.815Z,97783.00
2019-05-26T13:35:42.439Z,97774.00
2019-05-26T13:40:53.094Z,97769.00
2019-05-26T13:46:01.986Z,97759.00
2019-05-26T13:51:13.925Z,97760.00
2019-05-26T13:56:24.441Z,97775.00
2019-05-26T14:01:43.859Z,97784.00
2019-05-26T14:07:07.315Z,97776.00
2019-05-26T14:12:15.494Z,97774.00
2019-05-26T14:17:35.159Z,97768.00
2019-05-26T14:22:44.874Z,97761.00
2019-05-26T14:28:12.523Z,97765.00
2019-05-26T14:33:23.836Z,97760.00
2019-05-26T14:38:43.554Z,97757.00
2019-05-26T14:43:51.363Z,97759.00
2019-05-26T14:49:02.677Z,97761.00
2019-05-26T14:54:13.986Z,97760.00
2019-05-26T14:59:22.898Z,97746.00
2019-05-26T15:04:50.660Z,97760.00
2019-05-26T15:09:57.931Z,97755.00
2019-05-26T15:15:07.966Z,97747.00
2019-05-26T15:20:15.679Z,97739.00
2019-05-26T15:25:24.792Z,97737.00
2019-05-26T15:30:37.027Z,97722.00
2019-05-26T15:35:59.348Z,97738.00
2019-05-26T15:41:24.979Z,97733.00
2019-05-26T15:46:51.011Z,97718.00
2019-05-26T15:52:03.618Z,97723.00
2019-05-26T15:57:13.668Z,97719.00
2019-05-26T16:02:39.192Z,97722.00
2019-05-26T16:08:04.810Z,97707.00
2019-05-26T16:13:14.324Z,97705.00
2019-05-26T16:18:22.865Z,97712.00
2019-05-26T16:23:48.145Z,97715.00
2019-05-26T16:29:07.308Z,97718.00
2019-05-26T16:34:17.674Z,97721.00
2019-05-26T16:39:37.303Z,97723.00
2019-05-26T16:45:00.275Z,97720.00
2019-05-26T16:50:11.873Z,97716.00
2019-05-26T16:55:29.557Z,97715.00
2019-05-26T17:00:40.814Z,97720.00
2019-05-26T17:05:48.254Z,97718.00
2019-05-26T17:11:13.774Z,97713.00
2019-05-26T17:16:24.283Z,97715.00
2019-05-26T17:21:49.686Z,97711.00
2019-05-26T17:27:16.622Z,97711.00
2019-05-26T17:32:24.873Z,97706.00
2019-05-26T17:37:34.646Z,97710.00
2019-05-26T17:42:45.275Z,97709.00
2019-05-26T17:47:54.954Z,97713.00
2019-05-26T17:53:04.638Z,97701.00
2019-05-26T17:58:21.091Z,97690.00
2019-05-26T18:03:28.292Z,97691.00
2019-05-26T18:08:36.533Z,97693.00
2019-05-26T18:13:46.641Z,97682.00
2019-05-26T18:18:55.935Z,97691.00
2019-05-26T18:24:03.138Z,97685.00
2019-05-26T18:29:10.865Z,97686.00
2019-05-26T18:34:18.565Z,97684.00
2019-05-26T18:39:26.825Z,97688.00
2019-05-26T18:44:37.640Z,97685.00
2019-05-26T18:49:45.441Z,97683.00
2019-05-26T18:54:54.029Z,97686.00
2019-05-26T19:00:21.892Z,97685.00
2019-05-26T19:05:49.253Z,97693.00
2019-05-26T19:11:08.918Z,97689.00
2019-05-26T19:16:35.537Z,97690.00
2019-05-26T19:22:00.813Z,97694.00
2019-05-26T19:27:15.417Z,97690.00
2019-05-26T19:32:24.952Z,97691.00
2019-05-26T19:37:51.181Z,97688.00
2019-05-26T19:43:00.809Z,97691.00
2019-05-26T19:48:15.832Z,97686.00
2019-05-26T19:53:22.996Z,97674.00
2019-05-26T19:58:49.281Z,97682.00
2019-05-26T20:04:15.770Z,97669.00
2019-05-26T20:09:40.955Z,97674.00
2019-05-26T20:15:03.730Z,97669.00
2019-05-26T20:20:13.245Z,97675.00
2019-05-26T20:25:21.786Z,97671.00
2019-05-26T20:30:40.840Z,97666.00
2019-05-26T20:35:50.988Z,97667.00
2019-05-26T20:41:17.179Z,97666.00
2019-05-26T20:46:43.795Z,97672.00
2019-05-26T20:51:51.743Z,97659.00
2019-05-26T20:57:17.904Z,97653.00
2019-05-26T21:02:32.464Z,97661.00
2019-05-26T21:07:42.174Z,97655.00
2019-05-26T21:12:58.958Z,97655.00
2019-05-26T21:18:20.753Z,97650.00
2019-05-26T21:23:46.270Z,97650.00
2019-05-26T21:29:06.942Z,97647.00
2019-05-26T21:34:18.246Z,97633.00
2019-05-26T21:39:30.250Z,97630.00
2019-05-26T21:44:55.409Z,97634.00
2019-05-26T21:50:02.549Z,97637.00
2019-05-26T21:55:28.009Z,97646.00
2019-05-26T22:00:54.855Z,97634.00
2019-05-26T22:06:23.403Z,97636.00
2019-05-26T22:11:43.430Z,97620.00
2019-05-26T22:16:52.415Z,97623.00
2019-05-26T22:21:59.932Z,97614.00
2019-05-26T22:27:09.299Z,97610.00
2019-05-26T22:32:18.097Z,97611.00
2019-05-26T22:37:31.173Z,97607.00
2019-05-26T22:42:38.541Z,97601.00
2019-05-26T23:09:36.371Z,97594.00
2019-05-26T23:15:01.839Z,97592.00
2019-05-26T23:20:11.898Z,97587.00
2019-05-26T23:25:19.623Z,97585.00
2019-05-26T23:30:45.278Z,97576.00
2019-05-26T23:36:13.336Z,97573.00
2019-05-26T23:41:23.314Z,97568.00
2019-05-26T23:46:42.483Z,97578.00
2019-05-26T23:51:57.332Z,97566.00
2019-05-26T23:57:05.373Z,97560.00
